createdAt,value
2024-03-04T00:02:19.717Z,9.73
2024-03-04T00:04:46.961Z,9.72
2024-03-04T00:07:14.075Z,9.69
2024-03-04T00:09:41.427Z,9.66
2024-03-04T00:12:08.635Z,9.65
2024-03-04T00:14:36.192Z,9.62
2024-03-04T00:17:03.139Z,9.61
2024-03-04T00:19:30.760Z,9.59
2024-03-04T00:21:57.800Z,9.57
2024-03-04T00:24:25.076Z,9.53
2024-03-04T00:26:51.988Z,9.49
2024-03-04T00:29:19.234Z,9.47
2024-03-04T00:31:46.392Z,9.46
2024-03-04T00:34:14.133Z,9.44
2024-03-04T00:36:41.152Z,9.44
2024-03-04T00:39:10.822Z,9.42
2024-03-04T00:41:37.944Z,9.40
2024-03-04T00:44:05.633Z,9.39
2024-03-04T00:46:33.241Z,9.38
2024-03-04T00:49:00.422Z,9.39
2024-03-04T00:51:27.396Z,9.39
2024-03-04T00:53:54.709Z,9.37
2024-03-04T00:56:22.325Z,9.33
2024-03-04T00:58:50.478Z,9.32
2024-03-04T01:01:17.516Z,9.31
2024-03-04T01:03:44.713Z,9.30
2024-03-04T01:06:11.721Z,9.28
2024-03-04T01:08:39.500Z,9.25
2024-03-04T01:11:06.875Z,9.22
2024-03-04T01:13:34.387Z,9.21
2024-03-04T01:16:01.548Z,9.17
2024-03-04T01:18:30.660Z,9.12
2024-03-04T01:20:58.067Z,9.12
2024-03-04T01:23:25.275Z,9.09
2024-03-04T01:25:52.250Z,9.07
2024-03-04T01:28:19.510Z,9.04
2024-03-04T01:30:49.077Z,9.02
2024-03-04T01:33:18.131Z,8.99
2024-03-04T01:35:45.009Z,8.94
2024-03-04T01:38:12.234Z,8.92
2024-03-04T01:40:39.193Z,8.91
2024-03-04T01:43:07.480Z,8.89
2024-03-04T01:45:34.626Z,8.89
2024-03-04T01:48:05.042Z,8.88
2024-03-04T01:50:40.164Z,8.86
2024-03-04T01:53:09.759Z,8.82
2024-03-04T01:55:43.593Z,8.81
2024-03-04T01:58:13.846Z,8.79
2024-03-04T02:00:45.705Z,8.77
2024-03-04T02:03:16.562Z,8.78
2024-03-04T02:05:49.946Z,8.77
2024-03-04T02:08:18.483Z,8.74
2024-03-04T02:10:45.830Z,8.75
2024-03-04T02:13:13.504Z,8.72
2024-03-04T02:15:40.683Z,8.66
2024-03-04T02:18:09.421Z,8.64
2024-03-04T02:20:43.844Z,8.58
2024-03-04T02:23:13.766Z,8.55
2024-03-04T02:25:55.955Z,8.50
2024-03-04T02:28:24.677Z,8.46
2024-03-04T02:30:52.232Z,8.37
2024-03-04T02:33:22.838Z,8.34
2024-03-04T02:35:51.136Z,8.32
2024-03-04T02:38:19.816Z,8.30
2024-03-04T02:40:50.203Z,8.28
2024-03-04T02:43:19.101Z,8.27
2024-03-04T02:45:46.318Z,8.25
2024-03-04T02:48:14.496Z,8.22
2024-03-04T02:50:41.472Z,8.21
2024-03-04T02:53:09.929Z,8.18
2024-03-04T02:55:38.580Z,8.18
2024-03-04T02:58:07.750Z,8.18
2024-03-04T03:00:35.504Z,8.16
2024-03-04T03:03:02.829Z,8.17
2024-03-04T03:05:29.929Z,8.17
2024-03-04T03:07:57.258Z,8.16
2024-03-04T03:10:24.635Z,8.16
2024-03-04T03:12:52.057Z,8.14
2024-03-04T03:15:18.939Z,8.08
2024-03-04T03:17:46.109Z,8.05
2024-03-04T03:20:19.476Z,8.04
2024-03-04T03:22:50.158Z,8.03
2024-03-04T03:25:17.980Z,8.02
2024-03-04T03:27:45.609Z,7.99
2024-03-04T03:30:13.388Z,8.00
2024-03-04T03:32:41.406Z,7.99
2024-03-04T03:35:09.281Z,7.98
2024-03-04T03:37:36.967Z,7.99
2024-03-04T03:40:05.426Z,7.97
2024-03-04T03:42:35.346Z,8.00
2024-03-04T03:45:02.489Z,7.99
2024-03-04T03:47:31.746Z,7.98
2024-03-04T03:49:58.953Z,7.98
2024-03-04T03:52:26.524Z,7.97
2024-03-04T03:54:53.520Z,7.96
2024-03-04T03:57:20.743Z,7.96
2024-03-04T03:59:48.108Z,7.95
2024-03-04T04:02:15.448Z,7.93
2024-03-04T04:04:42.437Z,7.93
2024-03-04T04:07:10.715Z,7.92
2024-03-04T04:09:37.744Z,7.83
2024-03-04T04:12:05.318Z,7.79
2024-03-04T04:14:32.223Z,7.71
2024-03-04T04:16:59.377Z,7.56
2024-03-04T04:19:26.385Z,7.41
2024-03-04T04:21:53.986Z,7.36
2024-03-04T04:24:20.927Z,7.33
2024-03-04T04:26:48.149Z,7.28
2024-03-04T04:29:15.100Z,7.29
2024-03-04T04:31:42.403Z,7.26
2024-03-04T04:34:09.357Z,7.27
2024-03-04T04:36:36.994Z,7.32
2024-03-04T04:39:04.078Z,7.32
2024-03-04T04:41:35.029Z,7.35
2024-03-04T04:44:03.051Z,7.38
2024-03-04T04:46:30.405Z,7.39
2024-03-04T04:48:57.385Z,7.42
2024-03-04T04:51:24.726Z,7.44
2024-03-04T04:53:54.460Z,7.45
2024-03-04T04:56:22.886Z,7.48
2024-03-04T04:58:49.976Z,7.44
2024-03-04T05:01:30.499Z,7.47
2024-03-04T05:06:28.409Z,7.55
2024-03-04T05:08:55.368Z,7.57
2024-03-04T05:11:23.876Z,7.59
2024-03-04T05:13:50.956Z,7.61
2024-03-04T05:16:18.138Z,7.62
2024-03-04T05:18:45.033Z,7.62
2024-03-04T05:21:13.152Z,7.63
2024-03-04T05:23:40.355Z,7.67
2024-03-04T05:26:07.555Z,7.68
2024-03-04T05:28:34.574Z,7.68
2024-03-04T05:31:01.950Z,7.65
2024-03-04T05:33:28.922Z,7.64
2024-03-04T05:35:56.164Z,7.60
2024-03-04T05:38:24.252Z,7.59
2024-03-04T05:40:51.751Z,7.57
2024-03-04T05:43:19.364Z,7.51
2024-03-04T05:45:46.989Z,7.49
2024-03-04T05:48:14.379Z,7.49
2024-03-04T05:50:41.904Z,7.47
2024-03-04T05:53:08.810Z,7.46
2024-03-04T05:55:36.705Z,7.47
2024-03-04T05:58:04.898Z,7.43
2024-03-04T06:00:33.588Z,7.42
2024-03-04T06:03:00.739Z,7.43
2024-03-04T06:05:28.457Z,7.46
2024-03-04T06:07:59.893Z,7.49
2024-03-04T06:10:28.784Z,7.50
2024-03-04T06:12:55.819Z,7.47
2024-03-04T06:15:23.079Z,7.40
2024-03-04T06:17:50.616Z,7.43
2024-03-04T06:20:17.846Z,7.43
2024-03-04T06:22:44.846Z,7.45
2024-03-04T06:25:12.112Z,7.48
2024-03-04T06:27:39.192Z,7.53
2024-03-04T06:30:12.281Z,7.55
2024-03-04T06:32:39.390Z,7.60
2024-03-04T06:35:07.568Z,7.64
2024-03-04T06:37:34.822Z,7.66
2024-03-04T06:40:02.362Z,7.69
2024-03-04T06:42:30.100Z,7.71
2024-03-04T06:44:57.450Z,7.75
2024-03-04T06:47:24.420Z,7.78
2024-03-04T06:49:52.396Z,7.81
2024-03-04T06:52:19.372Z,7.86
2024-03-04T06:54:51.051Z,7.92
2024-03-04T06:57:18.801Z,7.96
2024-03-04T06:59:46.398Z,8.02
2024-03-04T07:02:13.488Z,8.08
2024-03-04T07:04:40.920Z,8.14
2024-03-04T07:07:07.962Z,8.19
2024-03-04T07:09:35.311Z,8.25
2024-03-04T07:12:02.181Z,8.29
2024-03-04T07:14:29.426Z,8.31
2024-03-04T07:16:56.432Z,8.33
2024-03-04T07:19:24.838Z,8.36
2024-03-04T07:21:51.813Z,8.36
2024-03-04T07:24:19.089Z,8.40
2024-03-04T07:26:46.135Z,8.43
2024-03-04T07:29:20.217Z,8.48
2024-03-04T07:31:51.338Z,8.53
2024-03-04T07:34:19.006Z,8.56
2024-03-04T07:36:46.070Z,8.58
2024-03-04T07:39:13.300Z,8.63
2024-03-04T07:41:40.188Z,8.64
2024-03-04T07:44:07.561Z,8.65
2024-03-04T07:46:34.794Z,8.64
2024-03-04T07:49:02.098Z,8.63
2024-03-04T07:51:29.120Z,8.70
2024-03-04T07:53:56.591Z,8.69
2024-03-04T07:56:23.541Z,8.79
2024-03-04T07:58:50.816Z,8.86
2024-03-04T08:01:17.960Z,8.92
2024-03-04T08:03:46.557Z,8.95
2024-03-04T08:06:13.862Z,9.00
2024-03-04T08:08:41.068Z,9.07
2024-03-04T08:11:08.268Z,9.09
2024-03-04T08:13:35.569Z,9.13
2024-03-04T08:16:02.729Z,9.18
2024-03-04T08:18:30.059Z,9.18
2024-03-04T08:20:57.308Z,9.26
2024-03-04T08:23:24.491Z,9.32
2024-03-04T08:25:53.114Z,9.35
2024-03-04T08:28:28.582Z,9.38
2024-03-04T08:31:02.275Z,9.45
2024-03-04T08:33:29.500Z,9.51
2024-03-04T08:35:56.486Z,9.49
2024-03-04T08:38:24.845Z,9.58
2024-03-04T08:40:51.867Z,9.62
2024-03-04T08:43:19.185Z,9.66
2024-03-04T08:45:46.118Z,9.69
2024-03-04T08:48:13.276Z,9.65
2024-03-04T08:50:40.266Z,9.66
2024-03-04T08:53:07.465Z,9.68
2024-03-04T08:55:34.478Z,9.70
2024-03-04T08:58:02.381Z,9.77
2024-03-04T09:00:29.318Z,9.80
2024-03-04T09:02:56.594Z,9.87
2024-03-04T09:05:23.756Z,9.82
2024-03-04T09:07:51.044Z,9.85
2024-03-04T09:10:18.536Z,9.85
2024-03-04T09:12:48.809Z,9.87
2024-03-04T09:15:17.862Z,9.92
2024-03-04T09:17:45.157Z,10.03
2024-03-04T09:20:12.322Z,10.07
2024-03-04T09:22:41.904Z,9.94
2024-03-04T09:25:09.348Z,9.90
2024-03-04T09:27:37.831Z,10.04
2024-03-04T09:30:07.704Z,10.13
2024-03-04T09:32:35.536Z,10.22
2024-03-04T09:35:06.408Z,10.26
2024-03-04T09:37:33.957Z,10.26
2024-03-04T09:40:01.013Z,10.27
2024-03-04T09:42:32.258Z,10.32
2024-03-04T09:45:00.571Z,10.39
2024-03-04T09:47:28.765Z,10.45
2024-03-04T09:49:57.753Z,10.49
2024-03-04T09:52:28.473Z,10.55
2024-03-04T09:55:01.161Z,10.49
2024-03-04T09:57:29.827Z,10.61
2024-03-04T09:59:59.581Z,10.67
2024-03-04T10:02:26.913Z,10.73
2024-03-04T10:04:54.089Z,10.75
2024-03-04T10:07:21.393Z,10.80
2024-03-04T10:09:48.364Z,10.77
2024-03-04T10:12:15.582Z,10.75
2024-03-04T10:15:01.239Z,10.73
2024-03-04T10:17:29.097Z,10.68
2024-03-04T10:20:07.734Z,10.57
2024-03-04T10:22:35.691Z,10.62
2024-03-04T10:25:11.650Z,10.57
2024-03-04T10:27:42.467Z,10.57
2024-03-04T10:30:26.349Z,10.59
2024-03-04T10:32:57.304Z,10.62
2024-03-04T10:35:29.586Z,10.71
2024-03-04T10:38:03.847Z,10.71
2024-03-04T10:40:34.755Z,10.80
2024-03-04T10:43:02.358Z,10.86
2024-03-04T10:45:33.606Z,10.93
2024-03-04T10:48:04.901Z,10.92
2024-03-04T10:50:32.380Z,11.00
2024-03-04T10:53:03.157Z,11.09
2024-03-04T10:55:31.987Z,11.21
2024-03-04T10:58:03.803Z,11.30
2024-03-04T11:00:38.550Z,11.39
2024-03-04T11:03:14.400Z,11.49
2024-03-04T11:05:46.080Z,11.55
2024-03-04T11:08:21.182Z,11.68
2024-03-04T11:10:52.703Z,11.73
2024-03-04T11:13:26.188Z,11.82
2024-03-04T11:16:05.556Z,11.85
2024-03-04T11:19:20.849Z,11.95
2024-03-04T11:21:48.603Z,12.03
2024-03-04T11:24:17.828Z,12.12
2024-03-04T11:26:46.645Z,12.15
2024-03-04T11:29:15.877Z,12.28
2024-03-04T11:31:55.134Z,12.29
2024-03-04T11:34:22.563Z,12.33
2024-03-04T11:36:54.449Z,12.43
2024-03-04T11:39:23.014Z,12.51
2024-03-04T11:41:57.011Z,12.59
2024-03-04T11:44:24.561Z,12.69
2024-03-04T11:46:51.986Z,12.80
2024-03-04T11:49:33.973Z,12.95
2024-03-04T11:52:21.639Z,13.01
2024-03-04T11:54:50.147Z,13.08
2024-03-04T11:57:18.654Z,13.13
2024-03-04T12:00:04.008Z,13.18
2024-03-04T12:02:31.470Z,13.23
2024-03-04T12:04:59.785Z,13.32
2024-03-04T12:07:27.357Z,13.37
2024-03-04T12:10:08.922Z,13.40
2024-03-04T12:12:43.103Z,13.43
2024-03-04T12:15:13.655Z,13.47
2024-03-04T12:17:41.423Z,13.50
2024-03-04T12:20:09.711Z,13.59
2024-03-04T12:22:38.928Z,13.61
2024-03-04T12:25:12.254Z,13.65
2024-03-04T12:27:43.584Z,13.68
2024-03-04T12:30:18.552Z,13.74
2024-03-04T12:32:51.866Z,13.78
2024-03-04T12:35:33.649Z,13.83
2024-03-04T12:38:03.609Z,13.88
2024-03-04T12:40:31.099Z,13.93
2024-03-04T12:43:04.696Z,14.02
2024-03-04T12:45:34.572Z,14.06
2024-03-04T12:48:02.340Z,14.11
2024-03-04T12:50:30.944Z,14.19
2024-03-04T12:52:59.740Z,14.26
2024-03-04T12:55:28.039Z,14.30
2024-03-04T12:57:57.672Z,14.32
2024-03-04T13:00:26.318Z,14.34
2024-03-04T13:02:53.447Z,14.40
2024-03-04T13:05:20.668Z,14.42
2024-03-04T13:07:48.116Z,14.47
2024-03-04T13:10:16.488Z,14.53
2024-03-04T13:12:46.071Z,14.60
2024-03-04T13:15:13.848Z,14.60
2024-03-04T13:17:46.424Z,14.67
2024-03-04T13:20:16.788Z,14.74
2024-03-04T13:22:50.327Z,14.79
2024-03-04T13:25:19.357Z,14.80
2024-03-04T13:27:47.945Z,14.80
2024-03-04T13:30:15.745Z,14.82
2024-03-04T13:32:43.128Z,14.87
2024-03-04T13:35:11.161Z,14.92
2024-03-04T13:37:39.567Z,14.96
2024-03-04T13:40:12.105Z,15.01
2024-03-04T13:42:39.581Z,15.05
2024-03-04T13:45:10.020Z,15.08
2024-03-04T13:47:37.593Z,15.08
2024-03-04T13:50:05.772Z,15.13
2024-03-04T13:52:33.342Z,15.16
2024-03-04T13:55:01.175Z,15.18
2024-03-04T13:57:28.448Z,15.20
2024-03-04T13:59:55.685Z,15.21
2024-03-04T14:02:22.929Z,15.22
2024-03-04T14:04:50.344Z,15.23
2024-03-04T14:07:17.543Z,15.30
2024-03-04T14:09:44.789Z,15.40
2024-03-04T14:12:11.766Z,15.42
2024-03-04T14:14:38.976Z,15.44
2024-03-04T14:17:07.103Z,15.44
2024-03-04T14:19:34.540Z,15.48
2024-03-04T14:22:01.450Z,15.48
2024-03-04T14:24:29.006Z,15.47
2024-03-04T14:26:56.002Z,15.49
2024-03-04T14:29:23.204Z,15.49
2024-03-04T14:31:53.283Z,15.51
2024-03-04T14:34:21.071Z,15.52
2024-03-04T14:36:48.183Z,15.53
2024-03-04T14:39:15.397Z,15.55
2024-03-04T14:41:42.300Z,15.54
2024-03-04T14:44:10.199Z,15.54
2024-03-04T14:46:37.344Z,15.55
2024-03-04T14:49:04.690Z,15.57
2024-03-04T14:51:31.631Z,15.58
2024-03-04T14:53:58.957Z,15.59
2024-03-04T14:56:29.765Z,15.60
2024-03-04T14:58:57.612Z,15.58
2024-03-04T15:01:25.238Z,15.60
2024-03-04T15:03:52.558Z,15.62
2024-03-04T15:06:19.916Z,15.61
2024-03-04T15:08:50.125Z,15.61
2024-03-04T15:11:17.255Z,15.59
2024-03-04T15:13:45.372Z,15.59
2024-03-04T15:16:12.768Z,15.60
2024-03-04T15:18:41.279Z,15.59
2024-03-04T15:21:08.809Z,15.58
2024-03-04T15:23:36.577Z,15.58
2024-03-04T15:26:03.852Z,15.56
2024-03-04T15:28:31.670Z,15.55
2024-03-04T15:30:58.770Z,15.54
2024-03-04T15:33:26.144Z,15.53
2024-03-04T15:35:57.029Z,15.54
2024-03-04T15:38:30.352Z,15.53
2024-03-04T15:41:01.203Z,15.53
2024-03-04T15:43:28.596Z,15.53
2024-03-04T15:45:55.767Z,15.51
2024-03-04T15:48:23.039Z,15.50
2024-03-04T15:50:50.879Z,15.48
2024-03-04T15:53:18.192Z,15.44
2024-03-04T15:55:45.291Z,15.41
2024-03-04T15:58:12.666Z,15.39
2024-03-04T16:00:40.839Z,15.38
2024-03-04T16:03:08.350Z,15.35
2024-03-04T16:05:35.808Z,15.31
2024-03-04T16:08:04.921Z,15.30
2024-03-04T16:10:32.189Z,15.28
2024-03-04T16:12:59.729Z,15.25
2024-03-04T16:15:37.821Z,15.23
2024-03-04T16:18:12.653Z,15.20
2024-03-04T16:20:40.127Z,15.17
2024-03-04T16:23:08.371Z,15.14
2024-03-04T16:25:35.380Z,15.11
2024-03-04T16:28:02.758Z,15.06
2024-03-04T16:30:29.786Z,15.03
2024-03-04T16:32:57.415Z,15.01
2024-03-04T16:35:28.421Z,14.98
2024-03-04T16:37:59.358Z,14.94
2024-03-04T16:40:26.480Z,14.91
2024-03-04T16:42:54.007Z,14.88
2024-03-04T16:45:21.074Z,14.83
2024-03-04T16:47:48.518Z,14.80
2024-03-04T16:50:18.621Z,14.76
2024-03-04T16:52:46.298Z,14.69
2024-03-04T16:55:13.812Z,14.65
2024-03-04T16:57:41.384Z,14.61
2024-03-04T17:00:12.664Z,14.58
2024-03-04T17:02:40.063Z,14.57
2024-03-04T17:05:11.651Z,14.52
2024-03-04T17:07:43.421Z,14.47
2024-03-04T17:10:14.959Z,14.44
2024-03-04T17:12:42.559Z,14.39
2024-03-04T17:15:12.823Z,14.37
2024-03-04T17:17:40.619Z,14.32
2024-03-04T17:20:11.563Z,14.29
2024-03-04T17:22:39.637Z,14.26
2024-03-04T17:25:07.703Z,14.24
2024-03-04T17:27:35.877Z,14.21
2024-03-04T17:30:04.613Z,14.18
2024-03-04T17:32:32.977Z,14.14
2024-03-04T17:35:01.934Z,14.12
2024-03-04T17:37:30.470Z,14.08
2024-03-04T17:39:57.999Z,14.07
2024-03-04T17:42:27.211Z,14.08
2024-03-04T17:44:55.637Z,14.08
2024-03-04T17:47:22.997Z,14.07
2024-03-04T17:49:50.811Z,14.05
2024-03-04T17:52:18.624Z,14.05
2024-03-04T17:54:46.073Z,14.03
2024-03-04T17:57:13.836Z,13.98
2024-03-04T17:59:42.034Z,13.96
2024-03-04T18:02:10.690Z,13.93
2024-03-04T18:04:42.620Z,13.92
2024-03-04T18:07:10.019Z,13.87
2024-03-04T18:09:37.134Z,13.83
2024-03-04T18:12:04.768Z,13.80
2024-03-04T18:14:31.726Z,13.76
2024-03-04T18:16:59.341Z,13.74
2024-03-04T18:19:26.800Z,13.71
2024-03-04T18:21:54.085Z,13.66
2024-03-04T18:24:21.064Z,13.61
2024-03-04T18:26:48.508Z,13.56
2024-03-04T18:29:16.358Z,13.54
2024-03-04T18:31:43.710Z,13.50
2024-03-04T18:34:13.356Z,13.44
2024-03-04T18:36:45.160Z,13.42
2024-03-04T18:39:14.166Z,13.37
2024-03-04T18:41:41.920Z,13.32
2024-03-04T18:44:09.079Z,13.31
2024-03-04T18:46:36.511Z,13.24
2024-03-04T18:49:03.633Z,13.20
2024-03-04T18:51:31.620Z,13.16
2024-03-04T18:53:59.773Z,13.14
2024-03-04T18:56:27.344Z,13.11
2024-03-04T18:58:54.605Z,13.09
2024-03-04T19:01:28.024Z,13.06
2024-03-04T19:03:55.353Z,13.04
2024-03-04T19:06:23.891Z,13.02
2024-03-04T19:08:51.060Z,12.97
2024-03-04T19:11:19.001Z,12.96
2024-03-04T19:13:47.468Z,12.95
2024-03-04T19:16:15.415Z,12.91
2024-03-04T19:18:42.568Z,12.88
2024-03-04T19:21:19.688Z,12.84
2024-03-04T19:23:46.967Z,12.82
2024-03-04T19:26:21.951Z,12.78
2024-03-04T19:28:51.669Z,12.73
2024-03-04T19:31:24.084Z,12.70
2024-03-04T19:33:55.253Z,12.68
2024-03-04T19:36:25.956Z,12.64
2024-03-04T19:38:54.518Z,12.60
2024-03-04T19:41:27.712Z,12.56
2024-03-04T19:43:55.296Z,12.51
2024-03-04T19:46:27.008Z,12.40
2024-03-04T19:48:54.740Z,12.40
2024-03-04T19:51:23.693Z,12.38
2024-03-04T19:53:52.338Z,12.36
2024-03-04T19:56:20.119Z,12.33
2024-03-04T19:58:47.605Z,12.29
2024-03-04T20:01:15.178Z,12.28
2024-03-04T20:03:44.349Z,12.25
2024-03-04T20:06:12.627Z,12.22
2024-03-04T20:08:41.962Z,12.16
2024-03-04T20:11:13.277Z,12.13
2024-03-04T20:13:43.196Z,12.06
2024-03-04T20:16:13.958Z,12.02
2024-03-04T20:18:42.453Z,12.00
2024-03-04T20:21:12.867Z,11.95
2024-03-04T20:23:40.170Z,11.91
2024-03-04T20:26:08.055Z,11.86
2024-03-04T20:28:35.232Z,11.79
2024-03-04T20:31:03.800Z,11.75
2024-03-04T20:33:31.771Z,11.70
2024-03-04T20:35:59.147Z,11.65
2024-03-04T20:38:26.782Z,11.63
2024-03-04T20:40:54.552Z,11.58
2024-03-04T20:43:21.886Z,11.54
2024-03-04T20:45:49.188Z,11.51
2024-03-04T20:48:18.638Z,11.47
2024-03-04T20:50:48.738Z,11.40
2024-03-04T20:53:15.689Z,11.39
2024-03-04T20:55:45.292Z,11.34
2024-03-04T20:58:12.507Z,11.29
2024-03-04T21:00:39.997Z,11.25
2024-03-04T21:03:07.674Z,11.18
2024-03-04T21:05:37.016Z,11.17
2024-03-04T21:08:06.492Z,11.13
2024-03-04T21:10:34.004Z,11.10
2024-03-04T21:13:01.110Z,11.06
2024-03-04T21:15:28.278Z,11.02
2024-03-04T21:17:58.102Z,10.99
2024-03-04T21:20:27.583Z,10.96
2024-03-04T21:22:55.846Z,10.94
2024-03-04T21:25:23.909Z,10.89
2024-03-04T21:27:53.548Z,10.86
2024-03-04T21:30:22.477Z,10.84
2024-03-04T21:32:49.937Z,10.80
2024-03-04T21:35:17.327Z,10.78
2024-03-04T21:37:44.472Z,10.77
2024-03-04T21:40:12.836Z,10.74
2024-03-04T21:42:41.022Z,10.70
2024-03-04T21:45:09.781Z,10.67
2024-03-04T21:47:37.074Z,10.66
2024-03-04T21:50:08.599Z,10.61
2024-03-04T21:52:37.146Z,10.58
2024-03-04T21:55:05.511Z,10.55
2024-03-04T21:57:32.500Z,10.51
2024-03-04T21:59:59.775Z,10.47
2024-03-04T22:02:26.832Z,10.47
2024-03-04T22:04:54.194Z,10.44
2024-03-04T22:07:21.362Z,10.43
2024-03-04T22:09:48.700Z,10.38
2024-03-04T22:12:15.666Z,10.34
2024-03-04T22:14:42.965Z,10.34
2024-03-04T22:17:11.562Z,10.31
2024-03-04T22:19:38.945Z,10.31
2024-03-04T22:22:05.901Z,10.30
2024-03-04T22:24:33.118Z,10.30
2024-03-04T22:27:00.017Z,10.28
2024-03-04T22:29:28.060Z,10.26
2024-03-04T22:31:55.171Z,10.25
2024-03-04T22:34:24.113Z,10.26
2024-03-04T22:36:51.119Z,10.26
2024-03-04T22:39:18.252Z,10.29
2024-03-04T22:41:47.056Z,10.32
2024-03-04T22:44:16.361Z,10.33
2024-03-04T22:46:44.793Z,10.37
2024-03-04T22:49:12.258Z,10.39
2024-03-04T22:51:39.404Z,10.40
2024-03-04T22:54:06.635Z,10.42
2024-03-04T22:56:34.237Z,10.44
2024-03-04T22:59:01.818Z,10.46
2024-03-04T23:01:32.505Z,10.43
2024-03-04T23:04:00.147Z,10.44
2024-03-04T23:06:27.233Z,10.46
2024-03-04T23:08:54.774Z,10.43
2024-03-04T23:11:22.406Z,10.44
2024-03-04T23:13:50.361Z,10.44
2024-03-04T23:16:17.631Z,10.47
2024-03-04T23:18:44.888Z,10.47
2024-03-04T23:21:11.982Z,10.41
2024-03-04T23:23:39.686Z,10.41
2024-03-04T23:26:08.093Z,10.39
2024-03-04T23:28:39.045Z,10.37
2024-03-04T23:31:06.110Z,10.35
2024-03-04T23:33:33.380Z,10.36
2024-03-04T23:36:00.313Z,10.37
2024-03-04T23:38:28.115Z,10.34
2024-03-04T23:40:55.548Z,10.37
2024-03-04T23:43:23.389Z,10.39
2024-03-04T23:45:52.195Z,10.38
2024-03-04T23:48:20.590Z,10.33
2024-03-04T23:50:48.581Z,10.33
2024-03-04T23:53:16.302Z,10.34
2024-03-04T23:55:43.421Z,10.34
2024-03-04T23:58:10.802Z,10.36
